createdAt,value
2018-04-17T00:00:32.166Z,6.35
2018-04-17T00:02:59.652Z,6.32
2018-04-17T00:05:27.897Z,6.50
2018-04-17T00:07:55.363Z,6.35
2018-04-17T00:10:22.840Z,6.15
2018-04-17T00:12:50.298Z,7.40
2018-04-17T00:15:17.806Z,7.13
2018-04-17T00:17:46.062Z,6.40
2018-04-17T00:20:13.549Z,7.00
2018-04-17T00:22:41.024Z,6.97
2018-04-17T00:25:09.295Z,7.43
2018-04-17T00:27:36.854Z,8.38
2018-04-17T00:30:04.340Z,8.32
2018-04-17T00:32:31.821Z,7.53
2018-04-17T00:34:59.314Z,7.10
2018-04-17T00:40:21.526Z,7.28
2018-04-17T00:42:49.027Z,7.53
2018-04-17T00:45:16.659Z,8.20
2018-04-17T00:47:44.146Z,8.20
2018-04-17T00:50:11.645Z,8.20
2018-04-17T00:52:39.271Z,8.50
2018-04-17T00:55:06.739Z,8.10
2018-04-17T00:57:34.251Z,7.03
2018-04-17T01:00:01.727Z,7.80
2018-04-17T01:02:29.999Z,8.27
2018-04-17T01:04:57.513Z,8.32
2018-04-17T01:07:25.020Z,7.22
2018-04-17T01:09:52.483Z,7.70
2018-04-17T01:12:20.746Z,8.35
2018-04-17T01:14:48.236Z,8.98
2018-04-17T01:17:15.717Z,7.97
2018-04-17T01:19:43.220Z,7.75
2018-04-17T01:22:10.751Z,7.40
2018-04-17T01:24:38.249Z,7.32
2018-04-17T01:27:05.896Z,7.35
2018-04-17T01:29:33.362Z,7.67
2018-04-17T01:32:00.843Z,7.43
2018-04-17T01:34:28.343Z,8.23
2018-04-17T01:36:55.835Z,8.63
2018-04-17T01:39:24.170Z,8.30
2018-04-17T01:41:51.651Z,7.75
2018-04-17T01:44:19.215Z,6.97
2018-04-17T01:46:46.853Z,8.32
2018-04-17T01:49:14.352Z,8.87
2018-04-17T01:51:42.043Z,8.13
2018-04-17T01:54:09.520Z,10.18
2018-04-17T01:56:38.493Z,8.68
2018-04-17T01:59:07.309Z,8.40
2018-04-17T02:01:34.966Z,10.20
2018-04-17T02:04:02.448Z,9.98
2018-04-17T02:06:30.027Z,9.10
2018-04-17T02:08:57.533Z,9.30
2018-04-17T02:11:25.058Z,9.77
2018-04-17T02:13:52.562Z,9.13
2018-04-17T02:16:20.903Z,9.63
2018-04-17T02:18:49.158Z,10.52
2018-04-17T02:21:17.416Z,11.73
2018-04-17T02:23:45.082Z,11.07
2018-04-17T02:26:12.575Z,10.82
2018-04-17T02:28:40.830Z,10.50
2018-04-17T02:31:08.326Z,10.40
2018-04-17T02:33:35.793Z,11.40
2018-04-17T02:36:03.295Z,11.75
2018-04-17T02:38:30.803Z,12.00
2018-04-17T02:40:58.325Z,10.98
2018-04-17T02:43:26.563Z,11.03
2018-04-17T02:45:54.106Z,11.90
2018-04-17T02:48:21.635Z,11.00
2018-04-17T02:50:49.155Z,13.00
2018-04-17T02:53:19.613Z,11.75
2018-04-17T02:55:47.201Z,11.30
2018-04-17T02:58:14.675Z,13.85
2018-04-17T03:00:42.154Z,14.07
2018-04-17T03:03:09.659Z,13.23
2018-04-17T03:05:37.144Z,13.20
2018-04-17T03:08:04.630Z,14.02
2018-04-17T03:10:51.275Z,14.85
2018-04-17T03:13:18.773Z,14.38
2018-04-17T03:15:47.017Z,15.73
2018-04-17T03:18:14.511Z,15.77
2018-04-17T03:20:42.782Z,16.65
2018-04-17T03:23:15.979Z,14.43
2018-04-17T03:25:44.083Z,14.50
2018-04-17T03:28:11.597Z,14.82
2018-04-17T03:30:39.113Z,14.83
2018-04-17T03:33:06.610Z,16.27
2018-04-17T03:35:36.164Z,15.63
2018-04-17T03:38:03.654Z,14.43
2018-04-17T03:40:31.132Z,14.37
2018-04-17T03:43:10.939Z,14.18
2018-04-17T03:45:38.406Z,14.70
2018-04-17T03:48:05.927Z,15.45
2018-04-17T03:50:48.063Z,14.85
2018-04-17T03:53:15.655Z,15.50
2018-04-17T03:55:43.162Z,15.20
2018-04-17T03:58:19.758Z,15.40
2018-04-17T04:00:47.382Z,15.38
2018-04-17T04:03:14.883Z,15.43
2018-04-17T04:05:44.274Z,14.82
2018-04-17T04:08:11.831Z,13.98
2018-04-17T04:10:40.083Z,13.88
2018-04-17T04:13:07.576Z,15.93
2018-04-17T04:15:40.072Z,15.88
2018-04-17T04:18:20.228Z,16.15
2018-04-17T04:21:00.895Z,15.57
2018-04-17T04:23:40.290Z,14.30
2018-04-17T04:26:19.783Z,15.57
2018-04-17T04:28:47.275Z,16.12
2018-04-17T04:31:15.539Z,15.88
2018-04-17T04:33:43.930Z,14.45
2018-04-17T04:36:27.832Z,14.30
2018-04-17T04:38:56.098Z,14.82
2018-04-17T04:41:23.622Z,14.05
2018-04-17T04:43:54.692Z,13.55
2018-04-17T04:46:22.217Z,13.85
2018-04-17T04:48:49.804Z,13.13
2018-04-17T04:51:17.286Z,14.13
2018-04-17T04:53:44.775Z,13.45
2018-04-17T04:56:13.764Z,13.55
2018-04-17T04:58:49.552Z,14.60
2018-04-17T05:01:34.050Z,18.65
2018-04-17T05:04:01.577Z,16.97
2018-04-17T05:06:31.258Z,15.90
2018-04-17T05:09:00.606Z,13.98
2018-04-17T05:11:30.750Z,15.03
2018-04-17T05:14:01.125Z,18.98
2018-04-17T05:16:32.532Z,18.62
2018-04-17T05:19:06.940Z,14.23
2018-04-17T05:21:35.315Z,18.73
2018-04-17T05:26:44.268Z,15.57
2018-04-17T05:29:13.976Z,17.35
2018-04-17T05:31:45.328Z,16.67
2018-04-17T05:34:14.609Z,17.95
2018-04-17T05:36:43.543Z,17.17
2018-04-17T05:39:12.779Z,16.75
2018-04-17T05:42:02.031Z,16.73
2018-04-17T05:44:30.160Z,17.00
2018-04-17T05:49:52.369Z,16.58
2018-04-17T05:54:57.709Z,16.92
2018-04-17T05:57:26.582Z,16.05
2018-04-17T06:00:00.354Z,17.45
2018-04-17T06:02:32.788Z,18.27
2018-04-17T06:10:45.252Z,19.33
2018-04-17T06:13:14.408Z,18.17
2018-04-17T06:15:44.660Z,22.08
2018-04-17T06:18:15.843Z,20.85
2018-04-17T06:20:55.854Z,20.40
2018-04-17T06:23:23.442Z,21.17
2018-04-17T06:25:50.971Z,21.27
2018-04-17T06:28:23.230Z,19.98
2018-04-17T06:30:55.767Z,19.75
2018-04-17T06:33:29.556Z,18.73
2018-04-17T06:36:00.571Z,20.42
2018-04-17T06:38:29.460Z,22.10
2018-04-17T06:40:58.812Z,21.25
2018-04-17T06:43:27.885Z,20.12
2018-04-17T06:45:57.484Z,18.35
2018-04-17T06:48:25.178Z,18.55
2018-04-17T06:50:53.027Z,22.37
2018-04-17T06:53:21.687Z,19.08
2018-04-17T06:58:27.702Z,23.73
2018-04-17T07:01:11.454Z,19.92
2018-04-17T07:03:39.139Z,18.50
2018-04-17T07:06:09.195Z,19.67
2018-04-17T07:08:37.770Z,20.45
2018-04-17T07:11:06.677Z,18.35
2018-04-17T07:13:34.270Z,17.12
2018-04-17T07:16:08.119Z,19.40
2018-04-17T07:18:35.597Z,22.42
2018-04-17T07:21:03.847Z,18.65
2018-04-17T07:23:32.114Z,19.77
2018-04-17T07:25:59.607Z,16.77
2018-04-17T07:28:49.018Z,16.65
2018-04-17T07:31:16.629Z,17.83
2018-04-17T07:33:44.102Z,15.68
2018-04-17T07:36:11.678Z,19.90
2018-04-17T07:38:39.152Z,16.10
2018-04-17T07:41:06.667Z,15.02
2018-04-17T07:43:34.175Z,18.27
2018-04-17T07:46:01.821Z,17.58
2018-04-17T07:48:41.422Z,20.50
2018-04-17T07:51:09.065Z,15.20
2018-04-17T07:53:36.571Z,16.35
2018-04-17T07:56:05.002Z,17.10
2018-04-17T07:58:32.593Z,16.30
2018-04-17T08:01:00.087Z,14.75
2018-04-17T08:03:27.731Z,15.50
2018-04-17T08:05:55.444Z,16.60
2018-04-17T08:08:22.951Z,16.37
2018-04-17T08:10:50.470Z,15.98
2018-04-17T08:13:18.116Z,15.25
2018-04-17T08:15:45.680Z,15.80
2018-04-17T08:18:13.160Z,14.48
2018-04-17T08:20:40.725Z,13.80
2018-04-17T08:23:08.199Z,16.00
2018-04-17T08:25:39.230Z,15.88
2018-04-17T08:28:06.872Z,15.88
2018-04-17T08:30:34.358Z,15.40
2018-04-17T08:33:02.607Z,16.40
2018-04-17T08:35:36.982Z,15.70
2018-04-17T08:38:05.208Z,16.10
2018-04-17T08:40:52.858Z,14.63
2018-04-17T08:43:21.209Z,15.68
2018-04-17T08:45:56.702Z,15.47
2018-04-17T08:48:24.286Z,15.65
2018-04-17T08:50:51.835Z,16.92
2018-04-17T08:53:19.439Z,18.55
2018-04-17T08:55:46.928Z,17.00
2018-04-17T08:58:15.356Z,19.50
2018-04-17T09:00:42.893Z,19.25
2018-04-17T09:03:10.357Z,13.18
2018-04-17T09:05:37.928Z,12.45
2018-04-17T09:08:05.408Z,14.50
2018-04-17T09:10:42.543Z,11.90
2018-04-17T09:13:11.059Z,18.17
2018-04-17T09:15:43.078Z,13.90
2018-04-17T09:18:11.367Z,16.05
2018-04-17T09:20:39.610Z,14.32
2018-04-17T09:23:07.166Z,11.50
2018-04-17T09:25:34.675Z,13.35
2018-04-17T09:28:02.302Z,13.02
2018-04-17T09:30:29.830Z,11.50
2018-04-17T09:32:58.121Z,11.20
2018-04-17T09:35:26.381Z,13.50
2018-04-17T09:37:53.953Z,12.07
2018-04-17T09:40:21.448Z,16.40
2018-04-17T09:42:49.775Z,11.93
2018-04-17T09:45:17.270Z,11.32
2018-04-17T09:47:44.768Z,10.38
2018-04-17T09:50:14.318Z,10.45
2018-04-17T09:52:44.809Z,9.88
2018-04-17T09:55:12.294Z,9.65
2018-04-17T09:57:40.392Z,12.55
2018-04-17T10:00:08.028Z,10.52
2018-04-17T10:02:35.567Z,10.10
2018-04-17T10:05:07.933Z,11.02
2018-04-17T10:07:35.439Z,9.50
2018-04-17T10:10:02.930Z,7.13
2018-04-17T10:12:50.441Z,7.62
2018-04-17T10:15:17.929Z,7.45
2018-04-17T10:17:46.276Z,9.65
2018-04-17T10:20:17.365Z,6.93
2018-04-17T10:22:44.946Z,7.57
2018-04-17T10:25:12.520Z,5.95
2018-04-17T10:27:40.180Z,5.62
2018-04-17T10:30:07.696Z,7.33
2018-04-17T10:32:35.195Z,7.00
2018-04-17T10:35:03.435Z,6.37
2018-04-17T10:37:43.378Z,6.65
2018-04-17T10:40:10.889Z,6.65
2018-04-17T10:42:38.362Z,5.32
2018-04-17T10:45:05.874Z,4.40
2018-04-17T10:47:34.118Z,6.85
2018-04-17T10:50:01.628Z,5.03
2018-04-17T10:52:29.108Z,5.40
2018-04-17T10:54:57.392Z,4.28
2018-04-17T10:57:25.640Z,4.68
2018-04-17T10:59:53.872Z,6.77
2018-04-17T11:02:22.617Z,4.03
2018-04-17T11:04:50.116Z,4.70
2018-04-17T11:07:23.570Z,4.75
2018-04-17T11:09:51.091Z,3.50
2018-04-17T11:12:19.353Z,3.30
2018-04-17T11:14:46.811Z,5.78
2018-04-17T11:17:14.334Z,3.33
2018-04-17T11:19:41.844Z,3.10
2018-04-17T11:22:14.000Z,4.10
2018-04-17T11:24:42.956Z,4.73
2018-04-17T11:27:12.484Z,3.10
2018-04-17T11:29:40.312Z,5.05
2018-04-17T11:32:07.783Z,4.62
2018-04-17T11:34:35.325Z,3.90
2018-04-17T11:37:04.227Z,3.40
2018-04-17T11:39:31.694Z,6.22
2018-04-17T11:41:59.198Z,5.37
2018-04-17T11:44:26.923Z,5.78
2018-04-17T11:46:54.418Z,5.47
2018-04-17T11:49:21.899Z,3.92
2018-04-17T11:51:49.522Z,3.43
2018-04-17T11:54:17.894Z,3.10
2018-04-17T11:56:45.511Z,5.80
2018-04-17T11:59:13.022Z,4.53
2018-04-17T12:01:40.655Z,4.62
2018-04-17T12:04:08.427Z,3.20
2018-04-17T12:06:42.403Z,5.45
2018-04-17T12:09:11.218Z,3.27
2018-04-17T12:11:44.710Z,4.55
2018-04-17T12:14:17.242Z,3.17
2018-04-17T12:16:44.791Z,2.95
2018-04-17T12:22:18.229Z,3.80
2018-04-17T12:24:46.716Z,7.40
2018-04-17T12:27:14.252Z,3.72
2018-04-17T12:29:41.733Z,4.53
2018-04-17T12:32:09.322Z,4.45
2018-04-17T12:34:36.920Z,4.75
2018-04-17T12:37:04.428Z,3.40
2018-04-17T12:39:31.957Z,3.65
2018-04-17T12:42:08.074Z,3.83
2018-04-17T12:44:37.781Z,2.67
2018-04-17T12:47:05.353Z,3.47
2018-04-17T12:49:32.858Z,2.85
2018-04-17T12:52:00.374Z,2.42
2018-04-17T12:54:27.939Z,4.07
2018-04-17T12:56:57.242Z,3.12
2018-04-17T12:59:25.518Z,2.95
2018-04-17T13:01:53.801Z,3.83
2018-04-17T13:04:21.351Z,4.12
2018-04-17T13:06:49.648Z,3.67
2018-04-17T13:09:17.122Z,3.85
2018-04-17T13:11:44.672Z,3.20
2018-04-17T13:14:13.307Z,3.15
2018-04-17T13:16:55.791Z,3.20
2018-04-17T13:19:47.193Z,4.78
2018-04-17T13:22:19.922Z,3.00
2018-04-17T13:27:39.416Z,4.95
2018-04-17T13:30:06.916Z,2.40
2018-04-17T13:35:24.549Z,4.10
2018-04-17T13:38:13.060Z,3.22
2018-04-17T13:40:45.569Z,4.30
2018-04-17T13:43:13.830Z,2.50
2018-04-17T13:45:42.894Z,2.17
2018-04-17T13:48:12.628Z,3.83
2018-04-17T13:50:44.407Z,9.13
2018-04-17T13:53:12.935Z,6.90
2018-04-17T13:55:50.191Z,4.00
2018-04-17T13:58:18.537Z,6.87
2018-04-17T14:00:46.072Z,4.07
2018-04-17T14:03:13.755Z,7.97
2018-04-17T14:05:45.788Z,6.05
2018-04-17T14:08:13.975Z,3.47
2018-04-17T14:10:56.087Z,4.87
2018-04-17T14:13:24.698Z,76.68
2018-04-17T14:15:52.209Z,29.23
2018-04-17T14:18:25.570Z,5.13
2018-04-17T14:21:05.429Z,7.80
2018-04-17T14:23:35.061Z,4.70
2018-04-17T14:26:02.553Z,5.35
2018-04-17T14:28:40.861Z,3.25
2018-04-17T14:34:11.960Z,2.00
2018-04-17T14:36:43.789Z,3.55
2018-04-17T14:39:32.841Z,3.67
2018-04-17T14:44:59.678Z,4.03
2018-04-17T14:47:27.326Z,3.90
2018-04-17T14:49:56.788Z,3.95
2018-04-17T14:52:29.820Z,6.13
2018-04-17T14:54:58.067Z,3.35
2018-04-17T14:57:26.199Z,5.78
2018-04-17T14:59:53.705Z,3.78
2018-04-17T15:02:21.238Z,7.43
2018-04-17T15:04:49.556Z,4.00
2018-04-17T15:10:16.627Z,2.70
2018-04-17T15:12:50.822Z,2.87
2018-04-17T15:15:18.357Z,3.40
2018-04-17T15:17:46.556Z,2.22
2018-04-17T15:20:14.034Z,3.92
2018-04-17T15:22:42.546Z,2.80
2018-04-17T15:25:10.016Z,2.90
2018-04-17T15:27:37.565Z,7.15
2018-04-17T15:30:05.108Z,4.10
2018-04-17T15:32:33.338Z,4.55
2018-04-17T15:35:02.589Z,4.28
2018-04-17T15:37:31.683Z,4.18
2018-04-17T15:40:00.882Z,4.18
2018-04-17T15:45:13.321Z,5.22
2018-04-17T15:47:41.903Z,3.30
2018-04-17T15:50:13.092Z,3.03
2018-04-17T15:52:41.972Z,4.43
2018-04-17T15:55:09.508Z,3.90
2018-04-17T15:57:42.551Z,23.33
2018-04-17T16:00:10.063Z,5.75
2018-04-17T16:02:37.835Z,15.30
2018-04-17T16:05:12.995Z,7.15
2018-04-17T16:07:43.706Z,4.60
2018-04-17T16:10:12.157Z,3.75
2018-04-17T16:12:52.603Z,2.63
2018-04-17T16:18:42.462Z,2.92
2018-04-17T16:21:12.323Z,4.20
2018-04-17T16:23:42.643Z,3.65
2018-04-17T16:26:14.017Z,3.70
2018-04-17T16:28:42.361Z,3.97
2018-04-17T16:31:12.900Z,2.20
2018-04-17T16:33:46.203Z,3.87
2018-04-17T16:36:13.800Z,5.10
2018-04-17T16:38:42.155Z,2.33
2018-04-17T16:41:13.452Z,2.37
2018-04-17T16:43:42.824Z,3.90
2018-04-17T16:46:12.375Z,3.45
2018-04-17T16:48:39.918Z,2.22
2018-04-17T16:51:07.398Z,2.35
2018-04-17T16:53:42.027Z,3.78
2018-04-17T16:56:14.206Z,2.65
2018-04-17T16:58:42.949Z,3.10
2018-04-17T17:01:13.221Z,5.00
2018-04-17T17:03:42.558Z,8.57
2018-04-17T17:06:12.673Z,3.80
2018-04-17T17:08:44.007Z,2.95
2018-04-17T17:11:12.489Z,2.53
2018-04-17T17:13:43.951Z,3.30
2018-04-17T17:16:13.473Z,2.05
2018-04-17T17:18:42.428Z,3.80
2018-04-17T17:21:12.271Z,4.40
2018-04-17T17:23:43.353Z,2.78
2018-04-17T17:26:13.070Z,4.68
2018-04-17T17:28:42.511Z,2.58
2018-04-17T17:31:12.820Z,3.60
2018-04-17T17:36:39.732Z,3.60
2018-04-17T17:39:13.766Z,3.92
2018-04-17T17:41:45.443Z,3.60
2018-04-17T17:44:14.018Z,4.12
2018-04-17T17:46:43.302Z,2.35
2018-04-17T17:49:14.064Z,2.75
2018-04-17T17:51:43.010Z,3.92
2018-04-17T17:54:13.566Z,3.33
2018-04-17T17:56:42.956Z,3.20
2018-04-17T17:59:15.717Z,3.20
2018-04-17T18:01:44.444Z,4.73
2018-04-17T18:04:13.301Z,5.60
2018-04-17T18:06:43.037Z,3.00
2018-04-17T18:09:40.950Z,3.25
2018-04-17T18:12:14.397Z,5.57
2018-04-17T18:14:43.980Z,3.28
2018-04-17T18:17:13.415Z,4.97
2018-04-17T18:19:42.180Z,3.92
2018-04-17T18:22:10.856Z,3.62
2018-04-17T18:24:38.973Z,5.65
2018-04-17T18:27:28.871Z,4.00
2018-04-17T18:30:12.194Z,3.83
2018-04-17T18:32:44.895Z,7.20
2018-04-17T18:35:12.775Z,4.40
2018-04-17T18:37:41.136Z,5.62
2018-04-17T18:40:13.333Z,8.07
2018-04-17T18:42:44.077Z,10.18
2018-04-17T18:45:14.842Z,7.93
2018-04-17T18:47:42.549Z,8.20
2018-04-17T18:50:13.390Z,3.28
2018-04-17T18:52:44.055Z,4.27
2018-04-17T18:55:14.025Z,4.85
2018-04-17T18:57:42.330Z,8.25
2018-04-17T19:00:14.655Z,3.83
2018-04-17T19:02:45.051Z,4.72
2018-04-17T19:05:35.562Z,5.35
2018-04-17T19:08:12.495Z,5.78
2018-04-17T19:10:44.263Z,5.15
2018-04-17T19:13:14.424Z,4.62
2018-04-17T19:15:44.431Z,3.87
2018-04-17T19:18:12.787Z,3.72
2018-04-17T19:20:41.656Z,7.40
2018-04-17T19:23:10.351Z,7.72
2018-04-17T19:26:02.670Z,7.62
2018-04-17T19:28:31.607Z,7.12
2018-04-17T19:31:12.792Z,7.70
2018-04-17T19:33:43.412Z,6.22
2018-04-17T19:36:12.760Z,8.80
2018-04-17T19:38:44.276Z,7.00
2018-04-17T19:41:13.493Z,7.07
2018-04-17T19:43:42.622Z,6.95
2018-04-17T19:46:12.742Z,6.78
2018-04-17T19:48:44.170Z,5.93
2018-04-17T19:51:22.928Z,7.62
2018-04-17T19:53:50.602Z,4.90
2018-04-17T19:56:27.036Z,5.40
2018-04-17T19:58:55.302Z,5.75
2018-04-17T20:01:23.512Z,4.62
2018-04-17T20:03:51.756Z,6.15
2018-04-17T20:06:42.811Z,5.78
2018-04-17T20:09:10.268Z,5.50
2018-04-17T20:11:39.754Z,5.00
2018-04-17T20:14:07.247Z,5.62
2018-04-17T20:16:34.730Z,5.60
2018-04-17T20:19:02.222Z,4.68
2018-04-17T20:21:30.509Z,5.45
2018-04-17T20:23:58.840Z,4.32
2018-04-17T20:26:26.456Z,6.43
2018-04-17T20:28:54.732Z,5.67
2018-04-17T20:31:22.285Z,8.15
2018-04-17T20:33:52.786Z,6.30
2018-04-17T20:36:20.292Z,6.00
2018-04-17T20:38:59.030Z,4.37
2018-04-17T20:41:43.425Z,5.80
2018-04-17T20:44:11.017Z,7.35
2018-04-17T20:46:39.273Z,4.85
2018-04-17T20:49:13.375Z,5.37
2018-04-17T20:51:44.775Z,4.68
2018-04-17T20:54:13.046Z,7.93
2018-04-17T20:56:45.714Z,5.45
2018-04-17T20:59:17.088Z,6.45
2018-04-17T21:01:45.364Z,9.00
2018-04-17T21:04:12.900Z,10.32
2018-04-17T21:06:55.101Z,6.32
2018-04-17T21:09:43.610Z,7.82
2018-04-17T21:12:14.939Z,6.70
2018-04-17T21:14:44.870Z,5.95
2018-04-17T21:17:13.754Z,8.00
2018-04-17T21:19:44.575Z,8.10
2018-04-17T21:22:12.121Z,4.40
2018-04-17T21:24:42.926Z,6.82
2018-04-17T21:27:10.826Z,4.57
2018-04-17T21:29:43.908Z,5.93
2018-04-17T21:32:11.422Z,5.82
2018-04-17T21:34:38.935Z,5.25
2018-04-17T21:37:07.176Z,6.65
2018-04-17T21:39:34.699Z,6.60
2018-04-17T21:42:04.005Z,8.18
2018-04-17T21:44:31.516Z,4.82
2018-04-17T21:46:58.983Z,5.43
2018-04-17T21:49:26.577Z,8.07
2018-04-17T21:51:54.103Z,7.37
2018-04-17T21:54:21.639Z,5.40
2018-04-17T21:56:49.211Z,7.07
2018-04-17T21:59:16.691Z,4.53
2018-04-17T22:01:44.920Z,5.90
2018-04-17T22:04:12.447Z,5.87
2018-04-17T22:06:39.998Z,6.18
2018-04-17T22:09:07.587Z,6.45
2018-04-17T22:11:41.559Z,4.60
2018-04-17T22:14:15.680Z,6.30
2018-04-17T22:16:44.031Z,5.00
2018-04-17T22:19:12.333Z,7.00
2018-04-17T22:21:40.627Z,6.40
2018-04-17T22:24:08.111Z,5.93
2018-04-17T22:26:35.659Z,6.55
2018-04-17T22:29:04.019Z,3.47
2018-04-17T22:31:34.723Z,5.62
2018-04-17T22:34:03.887Z,5.80
2018-04-17T22:36:31.373Z,4.82
2018-04-17T22:38:59.594Z,6.50
2018-04-17T22:41:27.152Z,10.50
2018-04-17T22:43:54.640Z,7.72
2018-04-17T22:46:22.199Z,7.75
2018-04-17T22:48:49.691Z,8.85
2018-04-17T22:51:31.494Z,6.62
2018-04-17T22:53:58.990Z,5.07
2018-04-17T22:56:26.491Z,8.00
2018-04-17T22:58:54.755Z,6.28
2018-04-17T23:01:41.203Z,5.47
2018-04-17T23:04:08.707Z,5.72
2018-04-17T23:06:36.190Z,6.03
2018-04-17T23:09:03.711Z,5.50
2018-04-17T23:11:36.126Z,8.65
2018-04-17T23:14:03.603Z,5.22
2018-04-17T23:16:31.083Z,3.58
2018-04-17T23:19:11.036Z,3.50
2018-04-17T23:21:38.525Z,5.05
2018-04-17T23:24:06.095Z,6.47
2018-04-17T23:26:33.668Z,5.87
2018-04-17T23:29:01.152Z,6.57
2018-04-17T23:31:29.443Z,6.77
2018-04-17T23:33:57.746Z,5.75
2018-04-17T23:36:26.080Z,5.78
2018-04-17T23:39:12.150Z,4.15
2018-04-17T23:41:53.427Z,4.95
2018-04-17T23:44:25.579Z,5.40
2018-04-17T23:46:53.138Z,8.15
2018-04-17T23:49:20.558Z,4.65
2018-04-17T23:51:48.068Z,5.75
2018-04-17T23:54:15.563Z,4.70
2018-04-17T23:59:28.200Z,3.97
